Time;durP1;ratioP1;P1;durP2;ratioP2;P2;SDS_P1;SDS_P2;PMS_P1;PMS_P2;Temp;Humidity;BMP_temperature;BMP_pressure;BME280_temperature;BME280_humidity;BME280_pressure;Samples;Min_cycle;Max_cycle;Signal;HPM_P1;HPM_P2
2022/02/13 00:01:01;;;;;;;17.10;9.25;;;-1.20;99.90;;;;;;1951360;73;21123;-73
2022/02/13 00:03:28;;;;;;;15.88;9.50;;;-1.20;99.90;;;;;;1950234;72;21214;-74
2022/02/13 00:05:56;;;;;;;18.07;9.73;;;-1.20;99.90;;;;;;1959430;73;21007;-74
2022/02/13 00:08:23;;;;;;;15.48;8.78;;;-1.20;99.90;;;;;;1945502;72;21008;-75
2022/02/13 00:10:50;;;;;;;13.85;8.70;;;-1.20;99.90;;;;;;1950519;72;21061;-74
2022/02/13 00:13:24;;;;;;;17.52;9.18;;;-1.20;99.90;;;;;;1942968;72;21035;-75
2022/02/13 00:15:52;;;;;;;14.55;8.05;;;-1.20;99.90;;;;;;1954817;72;21027;-75
2022/02/13 00:18:19;;;;;;;13.55;9.15;;;-1.20;99.90;;;;;;1951332;73;21070;-75
2022/02/13 00:20:46;;;;;;;16.17;10.20;;;-1.30;99.90;;;;;;1947949;72;21128;-76
2022/02/13 00:23:13;;;;;;;13.38;9.58;;;-1.30;99.90;;;;;;1958642;73;21126;-75
2022/02/13 00:25:43;;;;;;;17.35;8.63;;;-1.30;99.90;;;;;;1958425;73;21098;-75
2022/02/13 00:28:13;;;;;;;13.35;8.45;;;-1.30;99.90;;;;;;1958498;72;21440;-75
2022/02/13 00:30:39;;;;;;;12.43;8.80;;;-1.30;99.90;;;;;;1950046;73;21068;-75
2022/02/13 00:33:06;;;;;;;13.13;8.30;;;-1.30;99.90;;;;;;1938072;72;21074;-75
2022/02/13 00:35:33;;;;;;;14.15;8.50;;;-1.30;99.90;;;;;;1945961;72;21129;-76
2022/02/13 00:38:20;;;;;;;16.97;8.75;;;-1.30;99.90;;;;;;1955592;73;21062;-74
2022/02/13 00:40:47;;;;;;;12.05;7.67;;;-1.30;99.90;;;;;;1883482;74;21552;-74
2022/02/13 00:43:15;;;;;;;11.95;7.53;;;-1.40;99.90;;;;;;1855103;77;21062;-75
2022/02/13 00:45:42;;;;;;;11.73;8.60;;;-1.40;99.90;;;;;;1889437;76;21423;-75
2022/02/13 00:48:10;;;;;;;15.75;8.78;;;-1.40;99.90;;;;;;1889482;76;21049;-74
2022/02/13 00:50:38;;;;;;;15.55;8.13;;;-1.50;99.90;;;;;;1889507;74;21146;-74
2022/02/13 00:53:09;;;;;;;15.13;8.13;;;-1.40;99.90;;;;;;1890888;74;21089;-73
2022/02/13 00:55:37;;;;;;;12.20;8.55;;;-1.50;99.90;;;;;;1889600;74;21159;-74
2022/02/13 00:58:04;;;;;;;11.20;8.23;;;-1.50;99.90;;;;;;1885356;74;21160;-74
2022/02/13 01:00:31;;;;;;;11.25;7.97;;;-1.50;99.90;;;;;;1879365;75;21046;-74
2022/02/13 01:03:00;;;;;;;11.30;7.58;;;-1.50;99.90;;;;;;1889978;74;21109;-75
2022/02/13 01:05:29;;;;;;;17.27;8.53;;;-1.50;99.90;;;;;;1874495;75;21086;-75
2022/02/13 01:07:56;;;;;;;13.58;8.00;;;-1.50;99.90;;;;;;1875456;74;21084;-76
2022/02/13 01:10:23;;;;;;;11.85;7.75;;;-1.60;99.90;;;;;;1901776;75;21074;-75
2022/02/13 01:12:51;;;;;;;14.53;8.40;;;-1.60;99.90;;;;;;1904412;75;21138;-75
2022/02/13 01:15:18;;;;;;;15.83;8.55;;;-1.60;99.90;;;;;;1878484;74;21073;-75
2022/02/13 01:17:45;;;;;;;11.18;7.70;;;-1.60;99.90;;;;;;1900918;75;21073;-73
2022/02/13 01:20:13;;;;;;;11.38;7.50;;;-1.60;99.90;;;;;;1911224;75;21142;-75
2022/02/13 01:22:40;;;;;;;10.98;7.25;;;-1.60;99.90;;;;;;1882896;74;21143;-75
2022/02/13 01:25:08;;;;;;;13.28;8.28;;;-1.60;99.90;;;;;;1889434;74;21054;-75
2022/02/13 01:27:35;;;;;;;12.53;8.25;;;-1.70;99.90;;;;;;1882179;74;21496;-76
2022/02/13 01:30:03;;;;;;;16.60;9.30;;;-1.70;99.90;;;;;;1879604;75;21175;-75
2022/02/13 01:32:32;;;;;;;16.60;8.65;;;-1.70;99.90;;;;;;1888434;76;21045;-75
2022/02/13 01:34:59;;;;;;;16.25;9.60;;;-1.70;99.90;;;;;;1845232;77;21481;-74
2022/02/13 01:37:26;;;;;;;15.63;8.33;;;-1.70;99.90;;;;;;1875622;76;21069;-75
2022/02/13 01:39:54;;;;;;;14.10;8.90;;;-1.60;99.90;;;;;;1886200;75;21214;-74
2022/02/13 01:42:21;;;;;;;14.05;8.50;;;-1.60;99.90;;;;;;1890802;74;21473;-75
2022/02/13 01:44:52;;;;;;;13.03;8.40;;;-1.60;99.90;;;;;;1889759;74;21093;-76
2022/02/13 01:47:17;;;;;;;12.07;7.95;;;-1.60;99.90;;;;;;1885202;75;21160;-76
2022/02/13 01:49:45;;;;;;;15.05;8.58;;;-1.70;99.90;;;;;;1876092;74;21158;-75
2022/02/13 01:52:12;;;;;;;21.85;8.70;;;-1.60;99.90;;;;;;1889483;75;21049;-75
2022/02/13 01:54:39;;;;;;;13.53;7.47;;;-1.60;99.90;;;;;;1893720;74;21093;-75
2022/02/13 01:57:09;;;;;;;12.05;7.70;;;-1.60;99.90;;;;;;1891692;74;21046;-74
2022/02/13 01:59:37;;;;;;;12.45;8.35;;;-1.60;99.90;;;;;;1886261;74;21154;-75
2022/02/13 02:02:04;;;;;;;12.95;7.62;;;-1.60;99.90;;;;;;1889000;74;21234;-74
2022/02/13 02:04:32;;;;;;;9.23;7.45;;;-1.70;99.90;;;;;;1889067;74;21093;-75
2022/02/13 02:07:01;;;;;;;12.80;7.87;;;-1.70;99.90;;;;;;1890519;75;21151;-74
2022/02/13 02:09:28;;;;;;;12.15;8.08;;;-1.70;99.90;;;;;;1890280;75;21220;-76
2022/02/13 02:11:55;;;;;;;13.38;8.33;;;-1.80;99.90;;;;;;1870946;76;21006;-75
2022/02/13 02:14:23;;;;;;;15.08;7.42;;;-1.80;99.90;;;;;;1889760;75;21097;-74
2022/02/13 02:16:50;;;;;;;12.93;8.28;;;-1.60;99.90;;;;;;1890154;76;21081;-75
2022/02/13 02:19:17;;;;;;;17.42;7.83;;;-1.60;99.90;;;;;;1885109;74;21184;-75
2022/02/13 02:21:45;;;;;;;13.18;7.97;;;-1.60;99.90;;;;;;1890206;75;21194;-76
2022/02/13 02:24:16;;;;;;;14.35;7.80;;;-1.60;99.90;;;;;;1890842;75;21065;-75
2022/02/13 02:26:44;;;;;;;10.03;7.42;;;-1.70;99.90;;;;;;1883650;75;21091;-75
2022/02/13 02:29:11;;;;;;;11.30;7.12;;;-1.80;99.90;;;;;;1883969;76;21184;-75
2022/02/13 02:31:38;;;;;;;14.85;8.10;;;-1.80;99.90;;;;;;1880133;75;21082;-75
2022/02/13 02:34:06;;;;;;;13.58;7.75;;;-1.80;99.90;;;;;;1890095;76;21095;-75
2022/02/13 02:36:33;;;;;;;15.32;8.03;;;-1.70;99.90;;;;;;1900797;74;21461;-76
2022/02/13 02:39:00;;;;;;;14.65;7.62;;;-1.70;99.90;;;;;;1884880;76;21104;-75
2022/02/13 02:41:28;;;;;;;11.80;7.83;;;-1.70;99.90;;;;;;1875146;74;21090;-74
2022/02/13 02:43:55;;;;;;;15.80;8.73;;;-1.80;99.90;;;;;;1881295;74;21159;-75
2022/02/13 02:46:22;;;;;;;17.42;8.55;;;-1.80;99.90;;;;;;1874213;76;21094;-75
2022/02/13 02:48:50;;;;;;;12.18;8.25;;;-1.80;99.90;;;;;;1875692;75;21048;-75
2022/02/13 02:51:18;;;;;;;12.25;7.87;;;-1.80;99.90;;;;;;1889339;76;21076;-74
2022/02/13 02:53:46;;;;;;;20.57;8.28;;;-1.80;99.90;;;;;;1889306;76;21049;-75
2022/02/13 02:56:13;;;;;;;13.10;8.08;;;-1.80;99.90;;;;;;1878129;76;21129;-75
2022/02/13 02:58:42;;;;;;;13.55;7.97;;;-1.80;99.90;;;;;;1878509;74;21086;-74
2022/02/13 03:01:09;;;;;;;14.58;7.83;;;-1.80;99.90;;;;;;1882737;75;21100;-75
2022/02/13 03:03:36;;;;;;;10.72;7.83;;;-1.90;99.90;;;;;;1889488;74;21072;-74
2022/02/13 03:06:04;;;;;;;15.23;8.13;;;-1.80;99.90;;;;;;1889981;76;21458;-74
2022/02/13 03:08:32;;;;;;;13.53;7.90;;;-1.90;99.90;;;;;;1877074;74;21138;-75
2022/02/13 03:11:01;;;;;;;9.83;7.62;;;-1.80;99.90;;;;;;1885242;76;21500;-74
2022/02/13 03:13:28;;;;;;;12.68;8.23;;;-1.90;99.90;;;;;;1889232;75;21106;-75
2022/02/13 03:15:55;;;;;;;14.03;8.40;;;-1.90;99.90;;;;;;1891490;74;21077;-76
2022/02/13 03:18:23;;;;;;;12.28;8.35;;;-1.90;99.90;;;;;;1886741;75;21097;-75
2022/02/13 03:20:52;;;;;;;11.40;7.97;;;-2.00;99.90;;;;;;1890645;74;21094;-75
2022/02/13 03:23:21;;;;;;;11.43;8.75;;;-2.10;99.90;;;;;;1881622;75;21497;-75
2022/02/13 03:25:48;;;;;;;8.95;7.05;;;-2.00;99.90;;;;;;1885748;75;21089;-76
2022/02/13 03:28:16;;;;;;;13.03;8.60;;;-2.10;99.90;;;;;;1895614;74;21123;-75
2022/02/13 03:30:45;;;;;;;22.75;8.40;;;-2.00;99.90;;;;;;1878764;75;21121;-75
2022/02/13 03:33:12;;;;;;;16.20;8.68;;;-2.10;99.90;;;;;;1891348;74;21236;-75
2022/02/13 03:35:40;;;;;;;12.55;8.55;;;-2.10;99.90;;;;;;1876250;75;21153;-74
2022/02/13 03:38:07;;;;;;;12.13;8.93;;;-2.10;99.90;;;;;;1893614;74;21088;-74
2022/02/13 03:40:34;;;;;;;13.48;8.90;;;-2.10;99.90;;;;;;1887580;75;21527;-76
2022/02/13 03:43:05;;;;;;;12.45;8.40;;;-2.10;99.90;;;;;;1885880;75;21257;-74
2022/02/13 03:45:31;;;;;;;12.80;7.58;;;-2.10;99.90;;;;;;1884576;74;21465;-75
2022/02/13 03:47:58;;;;;;;14.85;8.33;;;-2.10;99.90;;;;;;1898821;75;21090;-75
2022/02/13 03:50:26;;;;;;;13.00;7.53;;;-2.10;99.90;;;;;;1844897;77;21149;-75
2022/02/13 03:52:54;;;;;;;19.15;8.55;;;-2.00;99.90;;;;;;1903903;75;21082;-76
2022/02/13 03:55:21;;;;;;;9.73;7.22;;;-2.00;99.90;;;;;;1911294;75;21490;-74
2022/02/13 03:57:48;;;;;;;15.13;8.35;;;-2.00;99.90;;;;;;1909105;75;21200;-75
2022/02/13 04:00:16;;;;;;;12.28;7.35;;;-2.00;99.90;;;;;;1906505;75;21074;-75
2022/02/13 04:02:43;;;;;;;12.15;7.40;;;-2.00;99.90;;;;;;1911349;74;21018;-75
2022/02/13 04:05:12;;;;;;;11.85;7.87;;;-2.00;99.90;;;;;;1909996;75;21039;-76
2022/02/13 04:07:40;;;;;;;11.75;7.10;;;-2.00;99.90;;;;;;1913429;74;21075;-75
2022/02/13 04:10:09;;;;;;;12.35;7.87;;;-2.00;99.90;;;;;;1905813;75;21051;-74
2022/02/13 04:12:36;;;;;;;14.53;8.80;;;-2.00;99.90;;;;;;1901374;75;21068;-76
2022/02/13 04:15:04;;;;;;;14.45;7.20;;;-1.90;99.90;;;;;;1889425;76;21272;-75
2022/02/13 04:17:31;;;;;;;12.18;7.67;;;-1.90;99.90;;;;;;1895332;76;21124;-75
2022/02/13 04:19:59;;;;;;;14.15;8.15;;;-2.00;99.90;;;;;;1884839;75;21088;-75
2022/02/13 04:22:26;;;;;;;12.30;7.42;;;-2.00;99.90;;;;;;1887835;75;21144;-75
2022/02/13 04:24:53;;;;;;;12.37;8.18;;;-2.00;99.90;;;;;;1889576;75;21088;-75
2022/02/13 04:27:21;;;;;;;12.88;7.87;;;-2.00;99.90;;;;;;1911855;75;21074;-74
2022/02/13 04:29:48;;;;;;;13.65;8.73;;;-2.00;99.90;;;;;;1910727;75;21055;-75
2022/02/13 04:32:17;;;;;;;15.10;8.73;;;-2.10;99.90;;;;;;1913514;75;21038;-75
2022/02/13 04:34:46;;;;;;;14.00;7.53;;;-2.00;99.90;;;;;;1912378;75;21517;-76
2022/02/13 04:37:15;;;;;;;13.55;7.90;;;-2.10;99.90;;;;;;1907822;75;21082;-74
2022/02/13 04:39:43;;;;;;;10.13;7.17;;;-2.00;99.90;;;;;;1908333;75;21078;-74
2022/02/13 04:42:12;;;;;;;14.07;8.05;;;-2.00;99.90;;;;;;1913540;75;21453;-74
2022/02/13 04:44:39;;;;;;;12.60;7.45;;;-2.10;99.90;;;;;;1900080;75;21081;-75
2022/02/13 04:47:06;;;;;;;11.10;7.40;;;-2.10;99.90;;;;;;1903734;75;21134;-75
2022/02/13 04:49:34;;;;;;;11.43;8.08;;;-2.00;99.90;;;;;;1888337;76;21077;-75
2022/02/13 04:52:01;;;;;;;14.98;8.53;;;-2.10;99.90;;;;;;1910142;75;21073;-74
2022/02/13 04:54:28;;;;;;;9.25;7.35;;;-2.10;99.90;;;;;;1915073;75;21030;-74
2022/02/13 04:56:56;;;;;;;11.85;7.17;;;-2.10;99.90;;;;;;1905521;75;21047;-74
2022/02/13 04:59:23;;;;;;;13.50;7.37;;;-2.10;99.90;;;;;;1904975;74;21075;-74
2022/02/13 05:01:50;;;;;;;14.03;7.83;;;-2.10;99.90;;;;;;1911482;75;21139;-74
2022/02/13 05:04:18;;;;;;;9.33;7.50;;;-2.20;99.90;;;;;;1909320;75;21046;-75
2022/02/13 05:06:45;;;;;;;15.23;7.83;;;-2.20;99.90;;;;;;1909248;75;21128;-75
2022/02/13 05:09:12;;;;;;;9.23;6.80;;;-2.20;99.90;;;;;;1910691;75;21155;-74
2022/02/13 05:11:40;;;;;;;13.90;7.70;;;-2.20;99.90;;;;;;1908097;75;21130;-75
2022/02/13 05:14:07;;;;;;;13.22;7.72;;;-2.30;99.90;;;;;;1838918;76;21497;-75
2022/02/13 05:16:34;;;;;;;10.32;6.95;;;-2.20;99.90;;;;;;1902941;75;21081;-74
2022/02/13 05:19:02;;;;;;;9.45;7.00;;;-2.30;99.90;;;;;;1910324;75;21563;-75
2022/02/13 05:21:29;;;;;;;10.08;7.42;;;-2.30;99.90;;;;;;1908873;75;21046;-75
2022/02/13 05:23:56;;;;;;;17.62;7.28;;;-2.30;99.90;;;;;;1900362;75;21481;-76
2022/02/13 05:26:24;;;;;;;10.95;7.20;;;-2.30;99.90;;;;;;1916728;75;21144;-75
2022/02/13 05:28:56;;;;;;;10.48;7.42;;;-2.30;99.90;;;;;;1907608;74;21086;-75
2022/02/13 05:31:29;;;;;;;11.43;7.58;;;-2.40;99.90;;;;;;1913325;75;21053;-75
2022/02/13 05:33:52;;;;;;;13.48;7.28;;;-2.40;99.90;;;;;;1903432;74;21185;-76
2022/02/13 05:36:19;;;;;;;13.28;8.63;;;-2.40;99.90;;;;;;1882434;74;21086;-76
2022/02/13 05:38:47;;;;;;;10.58;7.42;;;-2.30;99.90;;;;;;1895336;75;21151;-76
2022/02/13 05:41:14;;;;;;;9.15;7.03;;;-2.40;99.90;;;;;;1890828;75;21086;-75
2022/02/13 05:43:41;;;;;;;12.28;8.30;;;-2.40;99.90;;;;;;1907193;75;21077;-74
2022/02/13 05:46:09;;;;;;;11.63;7.35;;;-2.50;99.90;;;;;;1894711;75;21037;-75
2022/02/13 05:48:37;;;;;;;13.70;8.20;;;-2.40;99.90;;;;;;1911375;75;21042;-75
2022/02/13 05:51:04;;;;;;;12.35;8.63;;;-2.40;99.90;;;;;;1907855;75;21191;-75
2022/02/13 05:53:32;;;;;;;15.80;9.10;;;-2.50;99.90;;;;;;1906212;74;21077;-76
2022/02/13 05:55:59;;;;;;;12.20;7.80;;;-2.50;99.90;;;;;;1907781;75;21070;-75
2022/02/13 05:58:26;;;;;;;15.98;8.78;;;-2.50;99.90;;;;;;1908506;75;21077;-74
2022/02/13 06:00:54;;;;;;;14.18;8.48;;;-2.50;99.90;;;;;;1883136;74;21089;-75
2022/02/13 06:03:21;;;;;;;14.58;8.25;;;-2.40;99.90;;;;;;1869045;74;21077;-75
2022/02/13 06:05:48;;;;;;;11.70;8.33;;;-2.40;99.90;;;;;;1883050;74;21097;-74
2022/02/13 06:08:16;;;;;;;13.30;8.18;;;-2.40;99.90;;;;;;1889701;76;21030;-74
2022/02/13 06:10:43;;;;;;;13.53;8.65;;;-2.40;99.90;;;;;;1894363;75;21511;-75
2022/02/13 06:13:11;;;;;;;11.35;7.80;;;-2.40;99.90;;;;;;1895454;76;21053;-74
2022/02/13 06:15:38;;;;;;;10.87;8.17;;;-2.40;99.90;;;;;;1886278;75;21066;-75
2022/02/13 06:18:05;;;;;;;11.28;8.08;;;-2.40;99.90;;;;;;1889793;74;21548;-76
2022/02/13 06:20:33;;;;;;;14.87;8.53;;;-2.50;99.90;;;;;;1882901;76;21127;-75
2022/02/13 06:23:01;;;;;;;13.48;8.60;;;-2.50;99.90;;;;;;1902762;75;21478;-75
2022/02/13 06:25:28;;;;;;;14.18;8.55;;;-2.50;99.90;;;;;;1905216;74;21147;-75
2022/02/13 06:27:56;;;;;;;11.08;8.20;;;-2.50;99.90;;;;;;1906312;75;21186;-75
2022/02/13 06:30:26;;;;;;;12.78;8.20;;;-2.50;99.90;;;;;;1903879;75;21081;-75
2022/02/13 06:32:53;;;;;;;12.15;8.15;;;-2.50;99.90;;;;;;1909109;75;21143;-75
2022/02/13 06:35:22;;;;;;;16.70;8.70;;;-2.50;99.90;;;;;;1909147;75;21045;-75
2022/02/13 06:37:49;;;;;;;19.87;8.90;;;-2.40;99.90;;;;;;1827395;77;21058;-76
2022/02/13 06:40:17;;;;;;;14.95;8.20;;;-2.50;99.90;;;;;;1848346;77;21546;-75
2022/02/13 06:42:44;;;;;;;13.95;8.28;;;-2.50;99.90;;;;;;1867754;76;21095;-75
2022/02/13 06:45:11;;;;;;;17.55;9.45;;;-2.50;99.90;;;;;;1886616;76;21050;-76
2022/02/13 06:47:39;;;;;;;13.60;8.45;;;-2.40;99.90;;;;;;1892708;75;21516;-75
2022/02/13 06:50:06;;;;;;;14.60;8.65;;;-2.50;99.90;;;;;;1872518;76;21184;-75
2022/02/13 06:52:34;;;;;;;14.58;8.83;;;-2.50;99.90;;;;;;1861285;75;21123;-75
2022/02/13 06:55:01;;;;;;;9.65;6.95;;;-2.50;99.90;;;;;;1892832;75;21089;-75
2022/02/13 06:57:28;;;;;;;25.43;9.10;;;-2.40;99.90;;;;;;1891161;75;21100;-74
2022/02/13 06:59:55;;;;;;;17.32;9.03;;;-2.40;99.90;;;;;;1874245;74;21261;-74
2022/02/13 07:02:23;;;;;;;20.02;9.30;;;-2.30;99.90;;;;;;1884622;74;21092;-75
2022/02/13 07:04:50;;;;;;;16.82;8.75;;;-2.30;99.90;;;;;;1892616;74;21150;-76
2022/02/13 07:07:17;;;;;;;22.15;8.68;;;-2.30;99.90;;;;;;1899191;74;21442;-75
2022/02/13 07:09:45;;;;;;;12.80;8.45;;;-2.20;99.90;;;;;;1901285;75;21200;-75
2022/02/13 07:12:12;;;;;;;20.15;9.08;;;-2.20;99.90;;;;;;1894848;75;21480;-74
2022/02/13 07:14:41;;;;;;;12.90;8.35;;;-2.20;99.90;;;;;;1896106;75;21628;-75
2022/02/13 07:17:10;;;;;;;16.35;8.08;;;-2.10;99.90;;;;;;1864895;76;21063;-75
2022/02/13 07:19:37;;;;;;;13.22;8.80;;;-2.10;99.90;;;;;;1873827;74;21059;-75
2022/02/13 07:22:06;;;;;;;12.90;7.90;;;-2.00;99.90;;;;;;1884316;76;21073;-75
2022/02/13 07:24:37;;;;;;;12.90;7.42;;;-1.90;99.90;;;;;;1891816;74;21084;-77
2022/02/13 07:27:07;;;;;;;10.60;8.03;;;-1.90;99.90;;;;;;1884384;75;21063;-80
2022/02/13 07:29:37;;;;;;;14.98;8.65;;;-1.90;99.90;;;;;;1889539;75;21086;-76
2022/02/13 07:32:04;;;;;;;;;;;-1.90;99.90;;;;;;1886594;74;21156;-74
2022/02/13 07:34:32;;;;;;;13.43;8.88;;;-1.90;99.90;;;;;;1887879;75;20123;-76
2022/02/13 07:37:02;;;;;;;13.98;8.40;;;-1.80;99.90;;;;;;1884161;76;21046;-81
2022/02/13 07:39:30;;;;;;;13.43;7.62;;;-1.80;99.90;;;;;;1891373;76;21159;-78
2022/02/13 07:41:57;;;;;;;13.35;8.28;;;-1.70;99.90;;;;;;1893264;74;21196;-75
2022/02/13 07:44:25;;;;;;;13.78;8.58;;;-1.70;99.90;;;;;;1894760;74;21081;-80
2022/02/13 07:46:53;;;;;;;13.98;8.13;;;-1.60;99.90;;;;;;1877587;75;21133;-79
2022/02/13 07:49:20;;;;;;;19.67;9.00;;;-1.60;99.90;;;;;;1889101;76;21018;-82
2022/02/13 07:51:48;;;;;;;14.95;8.78;;;-1.40;99.90;;;;;;1881013;75;21186;-82
2022/02/13 07:54:15;;;;;;;14.63;8.33;;;-1.40;99.90;;;;;;1892997;75;21062;-82
2022/02/13 07:56:42;;;;;;;22.20;9.20;;;-1.30;99.90;;;;;;1889110;76;21046;-80
2022/02/13 07:59:10;;;;;;;12.33;8.05;;;-1.10;99.90;;;;;;1889074;76;21130;-80
2022/02/13 08:01:37;;;;;;;11.50;7.90;;;-1.00;99.90;;;;;;1889376;75;21039;-82
2022/02/13 08:04:04;;;;;;;13.93;8.43;;;-1.00;99.90;;;;;;1876921;74;21152;-82
2022/02/13 08:06:32;;;;;;;14.07;7.75;;;-0.90;99.90;;;;;;1893513;75;21566;-80
2022/02/13 08:08:59;;;;;;;15.43;8.13;;;-0.80;99.90;;;;;;1843925;77;21079;-80
2022/02/13 08:11:26;;;;;;;14.80;9.33;;;-0.70;99.90;;;;;;1909179;75;21086;-80
2022/02/13 08:13:54;;;;;;;13.35;9.88;;;-0.50;99.90;;;;;;1913906;75;21480;-81
2022/02/13 08:16:22;;;;;;;14.38;10.18;;;-0.40;99.90;;;;;;1907901;75;21496;-80
2022/02/13 08:18:50;;;;;;;13.55;9.10;;;-0.30;99.90;;;;;;1904210;74;21501;-80
2022/02/13 08:21:17;;;;;;;15.40;8.95;;;-0.20;99.90;;;;;;1910870;75;21074;-80
2022/02/13 08:23:46;;;;;;;13.35;8.95;;;0.00;99.90;;;;;;1914798;75;21472;-85
2022/02/13 08:26:16;;;;;;;12.53;8.90;;;0.10;99.90;;;;;;1916182;74;21172;-83
2022/02/13 08:28:44;;;;;;;12.07;9.18;;;0.20;99.90;;;;;;1907574;75;21078;-82
2022/02/13 08:31:13;;;;;;;21.33;8.53;;;0.30;99.90;;;;;;1907925;75;21111;-82
2022/02/13 08:33:41;;;;;;;15.93;9.13;;;0.50;99.90;;;;;;1903145;74;21076;-83
2022/02/13 08:36:08;;;;;;;13.95;8.13;;;0.60;99.90;;;;;;1889823;75;21100;-80
2022/02/13 08:38:35;;;;;;;17.17;8.40;;;0.80;99.90;;;;;;1879634;75;21469;-81
2022/02/13 08:41:04;;;;;;;14.60;8.65;;;1.00;99.90;;;;;;1889760;74;21489;-83
2022/02/13 08:43:31;;;;;;;15.23;8.25;;;1.10;99.90;;;;;;1903955;75;21066;-82
2022/02/13 08:45:59;;;;;;;14.70;8.78;;;1.40;99.90;;;;;;1908574;75;21147;-83
2022/02/13 08:48:26;;;;;;;10.68;7.53;;;1.50;99.90;;;;;;1880520;75;21118;-82
2022/02/13 08:50:53;;;;;;;14.65;7.67;;;1.70;99.90;;;;;;1894225;75;21096;-81
2022/02/13 08:53:21;;;;;;;26.35;8.73;;;1.80;99.90;;;;;;1891683;75;21049;-80
2022/02/13 08:55:48;;;;;;;15.78;8.38;;;2.00;99.90;;;;;;1904690;75;21143;-81
2022/02/13 08:58:15;;;;;;;12.75;7.37;;;2.10;99.90;;;;;;1919347;75;21142;-81
2022/02/13 09:00:43;;;;;;;14.90;8.03;;;2.10;99.90;;;;;;1914200;75;21083;-81
2022/02/13 09:03:10;;;;;;;11.93;7.35;;;2.50;99.90;;;;;;1903918;75;21081;-80
2022/02/13 09:05:37;;;;;;;11.65;7.58;;;2.80;99.90;;;;;;1889813;76;21441;-80
2022/02/13 09:08:05;;;;;;;12.53;7.85;;;2.90;99.90;;;;;;1881416;75;21076;-80
2022/02/13 09:10:33;;;;;;;11.28;6.90;;;3.30;99.90;;;;;;1895653;76;21092;-80
2022/02/13 09:13:00;;;;;;;15.72;6.72;;;3.60;99.90;;;;;;1886810;75;21088;-79
2022/02/13 09:15:30;;;;;;;16.80;6.85;;;3.90;99.90;;;;;;1889781;74;21518;-79
2022/02/13 09:17:56;;;;;;;9.53;6.45;;;4.10;99.90;;;;;;1887085;74;21144;-79
2022/02/13 09:20:23;;;;;;;10.30;7.15;;;4.40;99.90;;;;;;1902797;75;21042;-79
2022/02/13 09:22:52;;;;;;;10.43;6.50;;;4.60;99.90;;;;;;1899878;75;21138;-79
2022/02/13 09:25:21;;;;;;;11.55;6.67;;;4.70;99.90;;;;;;1889616;75;21162;-78
2022/02/13 09:27:48;;;;;;;13.15;8.05;;;5.00;99.90;;;;;;1894975;76;21171;-79
2022/02/13 09:30:16;;;;;;;11.20;6.78;;;5.20;99.90;;;;;;1888175;75;21442;-78
2022/02/13 09:32:43;;;;;;;10.10;7.03;;;5.30;99.90;;;;;;1885370;75;21167;-78
2022/02/13 09:35:10;;;;;;;10.00;7.05;;;5.40;99.90;;;;;;1893140;75;21085;-79
2022/02/13 09:37:39;;;;;;;8.70;6.17;;;5.60;99.90;;;;;;1892855;74;21064;-79
2022/02/13 09:40:07;;;;;;;15.68;6.60;;;5.90;99.90;;;;;;1883799;74;21183;-80
2022/02/13 09:42:35;;;;;;;10.35;6.10;;;6.00;99.90;;;;;;1909399;75;21466;-80
2022/02/13 09:45:05;;;;;;;9.70;6.58;;;6.20;99.90;;;;;;1908652;74;21082;-81
2022/02/13 09:47:32;;;;;;;12.30;6.10;;;6.40;99.90;;;;;;1878904;75;21399;-77
2022/02/13 09:49:59;;;;;;;12.95;6.22;;;6.60;99.90;;;;;;1907009;75;21043;-80
2022/02/13 09:52:26;;;;;;;9.43;5.80;;;6.70;99.90;;;;;;1905846;75;21199;-80
2022/02/13 09:54:54;;;;;;;9.93;5.92;;;6.90;99.90;;;;;;1906184;75;21543;-79
2022/02/13 10:00:03;;;;;;;12.37;6.05;;;7.30;99.90;;;;;;1843399;75;21200;-78
2022/02/13 10:02:33;;;;;;;10.50;6.25;;;7.30;99.90;;;;;;1906506;75;21075;-78
2022/02/13 10:05:02;;;;;;;13.65;6.00;;;7.50;99.90;;;;;;1905109;75;21058;-78
2022/02/13 10:07:37;;;;;;;8.85;5.60;;;7.90;99.90;;;;;;1909122;75;21111;-78
2022/02/13 10:10:06;;;;;;;12.03;5.10;;;7.80;99.90;;;;;;1911763;75;21191;-78
2022/02/13 10:12:40;;;;;;;7.75;5.42;;;7.70;99.90;;;;;;1878619;74;21101;-78
2022/02/13 10:15:27;;;;;;;10.43;5.55;;;7.40;99.90;;;;;;1849888;76;21528;-79
2022/02/13 10:18:02;;;;;;;18.23;6.20;;;8.00;99.90;;;;;;1837910;77;21157;-79
2022/02/13 10:20:34;;;;;;;9.90;5.20;;;8.30;99.90;;;;;;1879922;74;21151;-79
2022/02/13 10:23:12;;;;;;;9.75;6.05;;;8.00;99.90;;;;;;1897226;75;21077;-79
2022/02/13 10:25:41;;;;;;;9.83;6.15;;;8.50;99.90;;;;;;1884047;75;21057;-79
2022/02/13 10:28:15;;;;;;;10.50;6.20;;;8.60;99.90;;;;;;1890255;74;21326;-78
2022/02/13 10:30:49;;;;;;;8.50;5.42;;;8.80;99.90;;;;;;1852417;76;21238;-77
2022/02/13 10:33:23;;;;;;;13.10;5.72;;;9.10;99.90;;;;;;1883824;74;21141;-79
2022/02/13 10:36:12;;;;;;;11.12;5.60;;;10.00;99.90;;;;;;1881009;74;21081;-80
2022/02/13 10:38:41;;;;;;;10.28;5.58;;;10.00;99.90;;;;;;1889226;76;21209;-80
2022/02/13 10:41:20;;;;;;;12.73;5.73;;;9.50;99.90;;;;;;1888891;75;21445;-79
2022/02/13 10:44:03;;;;;;;10.78;5.33;;;9.50;99.90;;;;;;1880515;75;21101;-79
2022/02/13 10:46:32;;;;;;;9.80;5.83;;;9.70;99.90;;;;;;1855428;76;21272;-79
2022/02/13 10:49:00;;;;;;;8.98;5.60;;;9.80;99.90;;;;;;1857088;75;21093;-79
2022/02/13 10:51:27;;;;;;;8.80;5.60;;;9.80;99.90;;;;;;1869830;75;21202;-80
2022/02/13 10:53:55;;;;;;;14.05;5.80;;;9.70;99.90;;;;;;1901475;75;21115;-79
2022/02/13 10:56:22;;;;;;;15.03;5.83;;;9.70;99.90;;;;;;1875512;74;21474;-80
2022/02/13 10:58:55;;;;;;;7.97;5.50;;;10.30;99.90;;;;;;1872006;74;21163;-80
2022/02/13 11:01:19;;;;;;;10.10;5.70;;;10.30;99.90;;;;;;1889096;76;21061;-80
2022/02/13 11:03:51;;;;;;;10.40;5.37;;;10.90;99.90;;;;;;1850258;76;21144;-80
2022/02/13 11:06:18;;;;;;;11.48;5.30;;;11.50;99.90;;;;;;1906060;75;21043;-80
2022/02/13 11:08:51;;;;;;;7.70;4.83;;;11.70;99.90;;;;;;1914205;75;21139;-80
2022/02/13 11:11:19;;;;;;;11.33;5.50;;;12.10;99.90;;;;;;1876372;75;21066;-80
2022/02/13 11:13:46;;;;;;;6.20;4.83;;;11.40;99.90;;;;;;1885670;74;21121;-79
2022/02/13 11:16:36;;;;;;;11.25;5.10;;;11.80;99.90;;;;;;1906845;75;21070;-77
2022/02/13 11:19:14;;;;;;;8.20;4.75;;;12.40;99.90;;;;;;1905754;74;21089;-77
2022/02/13 11:21:43;;;;;;;11.88;5.03;;;12.70;99.90;;;;;;1845291;76;21082;-79
2022/02/13 11:24:34;;;;;;;8.38;5.00;;;13.10;99.90;;;;;;1877307;76;21123;-78
2022/02/13 11:27:01;;;;;;;10.43;5.80;;;13.10;99.90;;;;;;1888719;75;21038;-79
2022/02/13 11:29:56;;;;;;;11.40;6.00;;;13.10;99.90;;;;;;1895959;76;21127;-79
2022/02/13 11:32:39;;;;;;;10.48;5.50;;;13.00;99.90;;;;;;1894833;75;21093;-79
2022/02/13 11:35:08;;;;;;;7.92;5.03;;;13.40;99.90;;;;;;1888160;75;21057;-79
2022/02/13 11:37:45;;;;;;;9.23;4.92;;;13.70;99.90;;;;;;1887462;74;21058;-78
2022/02/13 11:40:38;;;;;;;7.55;5.37;;;13.40;99.90;;;;;;1902782;75;21097;-78
2022/02/13 11:43:08;;;;;;;7.92;4.75;;;14.40;99.90;;;;;;1867924;75;21094;-78
2022/02/13 11:45:42;;;;;;;10.83;5.90;;;15.00;99.90;;;;;;1903412;75;21086;-78
2022/02/13 11:48:37;;;;;;;12.53;5.42;;;14.90;99.90;;;;;;1890377;76;21803;-79
2022/02/13 11:51:07;;;;;;;11.15;4.95;;;14.50;99.90;;;;;;1868311;74;21457;-79
2022/02/13 11:53:37;;;;;;;8.68;5.12;;;14.30;99.90;;;;;;1874657;74;21163;-78
2022/02/13 11:56:23;;;;;;;11.20;5.80;;;14.50;99.90;;;;;;1872207;74;21172;-77
2022/02/13 11:58:51;;;;;;;11.15;5.35;;;14.40;99.90;;;;;;1887588;74;21453;-79
2022/02/13 12:01:40;;;;;;;12.58;5.40;;;14.60;99.90;;;;;;1861735;74;21077;-78
2022/02/13 12:04:12;;;;;;;12.35;5.10;;;14.70;99.90;;;;;;1876198;76;21129;-78
2022/02/13 12:06:40;;;;;;;13.62;5.22;;;14.60;99.90;;;;;;1893271;73;21058;-79
2022/02/13 12:09:13;;;;;;;11.68;5.50;;;14.70;99.90;;;;;;1845994;77;21077;-77
2022/02/13 12:11:43;;;;;;;7.92;4.87;;;15.40;99.90;;;;;;1879681;76;21069;-78
2022/02/13 12:14:18;;;;;;;9.48;4.75;;;15.60;99.90;;;;;;1875149;75;21086;-79
2022/02/13 12:16:56;;;;;;;7.53;4.15;;;15.60;99.90;;;;;;1855621;75;21170;-80
2022/02/13 12:19:35;;;;;;;11.68;4.60;;;15.20;99.90;;;;;;1878468;76;21155;-80
2022/02/13 12:22:15;;;;;;;6.80;4.17;;;15.40;99.90;;;;;;1872626;75;21089;-79
2022/02/13 12:24:43;;;;;;;9.08;4.87;;;15.40;99.90;;;;;;1881828;74;21085;-80
2022/02/13 12:27:13;;;;;;;8.93;4.50;;;16.20;99.10;;;;;;1871444;75;21562;-79
2022/02/13 12:29:53;;;;;;;13.72;5.03;;;16.00;98.90;;;;;;1877612;74;21172;-79
2022/02/13 12:32:23;;;;;;;8.87;5.00;;;16.40;98.00;;;;;;1920017;75;21051;-80
2022/02/13 12:34:55;;;;;;;;;;;16.50;97.30;;;;;;1915393;75;21459;-77
2022/02/13 12:37:33;;;;;;;11.15;4.67;;;16.00;97.40;;;;;;1912309;75;20118;-79
2022/02/13 12:40:00;;;;;;;7.42;4.22;;;16.10;96.40;;;;;;1903767;75;21082;-80
2022/02/13 12:42:33;;;;;;;8.35;4.08;;;16.50;96.10;;;;;;1905710;75;21113;-81
2022/02/13 12:45:01;;;;;;;7.00;3.60;;;16.60;95.50;;;;;;1863344;75;21539;-79
2022/02/13 12:47:31;;;;;;;6.55;3.58;;;16.60;94.40;;;;;;1888940;75;21050;-80
2022/02/13 12:50:10;;;;;;;7.10;3.98;;;16.50;94.30;;;;;;1881066;74;21081;-80
2022/02/13 12:52:38;;;;;;;8.20;4.50;;;16.30;94.00;;;;;;1865723;76;21097;-80